sensor_id;sensor_type;location;lat;lon;timestamp;pressure;altitude;pressure_sealevel;temperature;humidity
3844;BME280;1937;51.444;6.484;2023-08-12T00:02:32;72745.16;;;21.27;100.00
3844;BME280;1937;51.444;6.484;2023-08-12T00:04:59;72749.25;;;21.15;100.00
3844;BME280;1937;51.444;6.484;2023-08-12T00:07:25;72831.91;;;21.14;100.00
3844;BME280;1937;51.444;6.484;2023-08-12T00:09:52;72927.41;;;21.17;100.00
3844;BME280;1937;51.444;6.484;2023-08-12T00:12:18;73048.25;;;21.34;100.00
3844;BME280;1937;51.444;6.484;2023-08-12T00:14:46;72986.44;;;21.27;100.00
3844;BME280;1937;51.444;6.484;2023-08-12T00:17:13;73064.13;;;21.32;100.00
3844;BME280;1937;51.444;6.484;2023-08-12T00:19:39;73092.44;;;21.40;100.00
3844;BME280;1937;51.444;6.484;2023-08-12T00:22:06;73046.59;;;21.39;100.00
3844;BME280;1937;51.444;6.484;2023-08-12T00:24:32;73036.03;;;21.31;100.00
3844;BME280;1937;51.444;6.484;2023-08-12T00:26:59;73041.75;;;21.33;100.00
3844;BME280;1937;51.444;6.484;2023-08-12T00:29:26;73056.13;;;21.34;100.00
3844;BME280;1937;51.444;6.484;2023-08-12T00:31:53;73019.53;;;21.32;100.00
3844;BME280;1937;51.444;6.484;2023-08-12T00:34:21;73031.13;;;21.35;100.00
3844;BME280;1937;51.444;6.484;2023-08-12T00:36:47;73083.22;;;21.41;100.00
3844;BME280;1937;51.444;6.484;2023-08-12T00:39:14;73061.47;;;21.43;100.00
3844;BME280;1937;51.444;6.484;2023-08-12T00:41:40;73015.50;;;21.44;100.00
3844;BME280;1937;51.444;6.484;2023-08-12T00:44:07;73045.47;;;21.47;100.00
3844;BME280;1937;51.444;6.484;2023-08-12T00:46:34;73106.81;;;21.52;100.00
3844;BME280;1937;51.444;6.484;2023-08-12T00:49:03;73054.69;;;21.56;100.00
3844;BME280;1937;51.444;6.484;2023-08-12T00:51:30;73003.72;;;21.53;100.00
3844;BME280;1937;51.444;6.484;2023-08-12T00:53:57;73010.97;;;21.53;100.00
3844;BME280;1937;51.444;6.484;2023-08-12T00:56:25;73027.81;;;21.56;100.00
3844;BME280;1937;51.444;6.484;2023-08-12T00:58:52;72972.69;;;21.37;100.00
3844;BME280;1937;51.444;6.484;2023-08-12T01:01:19;72969.31;;;21.28;100.00
3844;BME280;1937;51.444;6.484;2023-08-12T01:03:46;73048.63;;;21.28;100.00
3844;BME280;1937;51.444;6.484;2023-08-12T01:06:14;73036.28;;;21.27;100.00
3844;BME280;1937;51.444;6.484;2023-08-12T01:08:40;73063.97;;;21.34;100.00
3844;BME280;1937;51.444;6.484;2023-08-12T01:11:12;73097.47;;;21.34;100.00
3844;BME280;1937;51.444;6.484;2023-08-12T01:13:45;73125.53;;;21.46;100.00
3844;BME280;1937;51.444;6.484;2023-08-12T01:16:13;73063.97;;;21.45;100.00
3844;BME280;1937;51.444;6.484;2023-08-12T01:18:43;73062.22;;;21.41;100.00
3844;BME280;1937;51.444;6.484;2023-08-12T01:21:13;73042.50;;;21.42;100.00
3844;BME280;1937;51.444;6.484;2023-08-12T01:23:43;73065.22;;;21.46;100.00
3844;BME280;1937;51.444;6.484;2023-08-12T01:26:09;73041.94;;;21.50;100.00
3844;BME280;1937;51.444;6.484;2023-08-12T01:28:36;73045.19;;;21.51;100.00
3844;BME280;1937;51.444;6.484;2023-08-12T01:31:07;73066.44;;;21.57;100.00
3844;BME280;1937;51.444;6.484;2023-08-12T01:33:39;73009.06;;;21.62;100.00
3844;BME280;1937;51.444;6.484;2023-08-12T01:36:12;72974.53;;;21.68;100.00
3844;BME280;1937;51.444;6.484;2023-08-12T01:38:43;72896.72;;;21.64;100.00
3844;BME280;1937;51.444;6.484;2023-08-12T01:41:12;72809.16;;;21.40;100.00
3844;BME280;1937;51.444;6.484;2023-08-12T01:43:40;72874.91;;;21.28;100.00
3844;BME280;1937;51.444;6.484;2023-08-12T01:46:07;72876.78;;;21.29;100.00
3844;BME280;1937;51.444;6.484;2023-08-12T01:48:34;72993.16;;;21.34;100.00
3844;BME280;1937;51.444;6.484;2023-08-12T01:51:00;72953.13;;;21.25;100.00
3844;BME280;1937;51.444;6.484;2023-08-12T01:53:28;72959.22;;;21.21;100.00
3844;BME280;1937;51.444;6.484;2023-08-12T01:55:56;72902.13;;;21.03;100.00
3844;BME280;1937;51.444;6.484;2023-08-12T01:58:23;72992.72;;;21.10;100.00
3844;BME280;1937;51.444;6.484;2023-08-12T02:00:51;73149.56;;;21.29;100.00
3844;BME280;1937;51.444;6.484;2023-08-12T02:03:18;72986.00;;;21.03;100.00
3844;BME280;1937;51.444;6.484;2023-08-12T02:05:47;73077.13;;;20.92;100.00
3844;BME280;1937;51.444;6.484;2023-08-12T02:08:13;73181.84;;;20.94;100.00
3844;BME280;1937;51.444;6.484;2023-08-12T02:10:40;73331.25;;;21.17;100.00
3844;BME280;1937;51.444;6.484;2023-08-12T02:13:08;73396.34;;;21.25;100.00
3844;BME280;1937;51.444;6.484;2023-08-12T02:15:34;73287.41;;;21.15;100.00
3844;BME280;1937;51.444;6.484;2023-08-12T02:18:01;73325.50;;;21.14;100.00
3844;BME280;1937;51.444;6.484;2023-08-12T02:20:28;73313.09;;;21.02;100.00
3844;BME280;1937;51.444;6.484;2023-08-12T02:22:55;73416.66;;;21.14;100.00
3844;BME280;1937;51.444;6.484;2023-08-12T02:25:21;73493.41;;;21.25;100.00
3844;BME280;1937;51.444;6.484;2023-08-12T02:27:48;73358.63;;;21.20;100.00
3844;BME280;1937;51.444;6.484;2023-08-12T02:30:16;73416.81;;;21.22;100.00
3844;BME280;1937;51.444;6.484;2023-08-12T02:32:42;73521.69;;;21.35;100.00
3844;BME280;1937;51.444;6.484;2023-08-12T02:35:09;73524.69;;;21.40;100.00
3844;BME280;1937;51.444;6.484;2023-08-12T02:37:36;73456.25;;;21.44;100.00
3844;BME280;1937;51.444;6.484;2023-08-12T02:40:04;73461.38;;;21.46;100.00
3844;BME280;1937;51.444;6.484;2023-08-12T02:42:31;73415.69;;;21.53;100.00
3844;BME280;1937;51.444;6.484;2023-08-12T02:44:57;73440.19;;;21.60;100.00
3844;BME280;1937;51.444;6.484;2023-08-12T02:47:26;73399.34;;;21.63;100.00
3844;BME280;1937;51.444;6.484;2023-08-12T02:49:53;73359.09;;;21.67;100.00
3844;BME280;1937;51.444;6.484;2023-08-12T02:52:19;73240.25;;;21.58;100.00
3844;BME280;1937;51.444;6.484;2023-08-12T02:54:46;73221.75;;;21.49;100.00
3844;BME280;1937;51.444;6.484;2023-08-12T02:57:13;73223.13;;;21.48;100.00
3844;BME280;1937;51.444;6.484;2023-08-12T02:59:39;73223.50;;;21.42;100.00
3844;BME280;1937;51.444;6.484;2023-08-12T03:02:06;73221.50;;;21.32;100.00
3844;BME280;1937;51.444;6.484;2023-08-12T03:04:34;73239.22;;;21.21;100.00
3844;BME280;1937;51.444;6.484;2023-08-12T03:07:00;73288.31;;;21.22;100.00
3844;BME280;1937;51.444;6.484;2023-08-12T03:09:28;73260.28;;;21.08;100.00
3844;BME280;1937;51.444;6.484;2023-08-12T03:11:54;73307.84;;;21.02;100.00
3844;BME280;1937;51.444;6.484;2023-08-12T03:14:21;73313.19;;;20.90;100.00
3844;BME280;1937;51.444;6.484;2023-08-12T03:16:47;73466.00;;;20.99;100.00
3844;BME280;1937;51.444;6.484;2023-08-12T03:19:14;73589.28;;;21.22;100.00
3844;BME280;1937;51.444;6.484;2023-08-12T03:21:42;73594.53;;;21.22;100.00
3844;BME280;1937;51.444;6.484;2023-08-12T03:24:08;73496.41;;;21.06;100.00
3844;BME280;1937;51.444;6.484;2023-08-12T03:26:35;73499.25;;;21.02;100.00
3844;BME280;1937;51.444;6.484;2023-08-12T03:29:01;73458.09;;;20.88;100.00
3844;BME280;1937;51.444;6.484;2023-08-12T03:31:28;73556.44;;;20.87;100.00
3844;BME280;1937;51.444;6.484;2023-08-12T03:33:55;73744.88;;;21.06;100.00
3844;BME280;1937;51.444;6.484;2023-08-12T03:36:21;73758.09;;;21.04;100.00
3844;BME280;1937;51.444;6.484;2023-08-12T03:38:49;73756.41;;;20.98;100.00
3844;BME280;1937;51.444;6.484;2023-08-12T03:41:16;73879.78;;;21.09;100.00
3844;BME280;1937;51.444;6.484;2023-08-12T03:43:43;73865.22;;;21.12;100.00
3844;BME280;1937;51.444;6.484;2023-08-12T03:46:09;73830.06;;;21.07;100.00
3844;BME280;1937;51.444;6.484;2023-08-12T03:48:36;74030.59;;;21.22;100.00
3844;BME280;1937;51.444;6.484;2023-08-12T03:51:02;73938.50;;;21.29;100.00
3844;BME280;1937;51.444;6.484;2023-08-12T03:53:29;73854.75;;;21.24;100.00
3844;BME280;1937;51.444;6.484;2023-08-12T03:55:57;73944.38;;;21.29;100.00
3844;BME280;1937;51.444;6.484;2023-08-12T03:58:23;73953.63;;;21.41;100.00
3844;BME280;1937;51.444;6.484;2023-08-12T04:00:50;73819.72;;;21.30;100.00
3844;BME280;1937;51.444;6.484;2023-08-12T04:03:16;73892.97;;;21.34;100.00
3844;BME280;1937;51.444;6.484;2023-08-12T04:05:49;73829.34;;;21.34;100.00
3844;BME280;1937;51.444;6.484;2023-08-12T04:08:18;73879.75;;;21.49;100.00
3844;BME280;1937;51.444;6.484;2023-08-12T04:10:45;73877.22;;;21.47;100.00
3844;BME280;1937;51.444;6.484;2023-08-12T04:13:14;73858.22;;;21.46;100.00
3844;BME280;1937;51.444;6.484;2023-08-12T04:15:41;73839.66;;;21.50;100.00
3844;BME280;1937;51.444;6.484;2023-08-12T04:18:08;73849.94;;;21.54;100.00
3844;BME280;1937;51.444;6.484;2023-08-12T04:20:36;73724.41;;;21.46;100.00
3844;BME280;1937;51.444;6.484;2023-08-12T04:23:03;73749.91;;;21.48;100.00
3844;BME280;1937;51.444;6.484;2023-08-12T04:25:30;73707.81;;;21.50;100.00
3844;BME280;1937;51.444;6.484;2023-08-12T04:27:56;73571.63;;;21.33;100.00
3844;BME280;1937;51.444;6.484;2023-08-12T04:30:24;73666.59;;;21.36;100.00
3844;BME280;1937;51.444;6.484;2023-08-12T04:32:51;73703.88;;;21.38;100.00
3844;BME280;1937;51.444;6.484;2023-08-12T04:35:18;73605.56;;;21.24;100.00
3844;BME280;1937;51.444;6.484;2023-08-12T04:37:44;73758.31;;;21.38;100.00
3844;BME280;1937;51.444;6.484;2023-08-12T04:40:11;73738.06;;;21.36;100.00
3844;BME280;1937;51.444;6.484;2023-08-12T04:42:37;73868.00;;;21.48;100.00
3844;BME280;1937;51.444;6.484;2023-08-12T04:45:05;73864.22;;;21.45;100.00
3844;BME280;1937;51.444;6.484;2023-08-12T04:47:33;73797.56;;;21.52;100.00
3844;BME280;1937;51.444;6.484;2023-08-12T04:49:59;73700.69;;;21.48;100.00
3844;BME280;1937;51.444;6.484;2023-08-12T04:52:26;73555.50;;;21.29;100.00
3844;BME280;1937;51.444;6.484;2023-08-12T04:54:53;73761.34;;;21.42;100.00
3844;BME280;1937;51.444;6.484;2023-08-12T04:57:19;73906.03;;;21.61;100.00
3844;BME280;1937;51.444;6.484;2023-08-12T04:59:46;73694.81;;;21.48;100.00
3844;BME280;1937;51.444;6.484;2023-08-12T05:02:12;73707.53;;;21.43;100.00
3844;BME280;1937;51.444;6.484;2023-08-12T05:04:40;73791.47;;;21.56;100.00
3844;BME280;1937;51.444;6.484;2023-08-12T05:07:07;73864.53;;;21.64;100.00
3844;BME280;1937;51.444;6.484;2023-08-12T05:09:34;73781.59;;;21.56;100.00
3844;BME280;1937;51.444;6.484;2023-08-12T05:12:00;73828.50;;;21.62;100.00
3844;BME280;1937;51.444;6.484;2023-08-12T05:14:27;73825.69;;;21.67;100.00
3844;BME280;1937;51.444;6.484;2023-08-12T05:16:53;73662.38;;;21.41;100.00
3844;BME280;1937;51.444;6.484;2023-08-12T05:19:20;73702.16;;;21.45;100.00
3844;BME280;1937;51.444;6.484;2023-08-12T05:21:48;73772.81;;;21.49;100.00
3844;BME280;1937;51.444;6.484;2023-08-12T05:24:15;73813.84;;;21.55;100.00
3844;BME280;1937;51.444;6.484;2023-08-12T05:26:41;73783.91;;;21.62;100.00
3844;BME280;1937;51.444;6.484;2023-08-12T05:29:08;73771.31;;;21.65;100.00
3844;BME280;1937;51.444;6.484;2023-08-12T05:31:34;73761.03;;;21.61;100.00
3844;BME280;1937;51.444;6.484;2023-08-12T05:34:01;73637.91;;;21.44;100.00
3844;BME280;1937;51.444;6.484;2023-08-12T05:36:28;73742.84;;;21.57;100.00
3844;BME280;1937;51.444;6.484;2023-08-12T05:38:56;73628.03;;;21.45;100.00
3844;BME280;1937;51.444;6.484;2023-08-12T05:41:23;73617.81;;;21.28;100.00
3844;BME280;1937;51.444;6.484;2023-08-12T05:43:49;73855.09;;;21.44;100.00
3844;BME280;1937;51.444;6.484;2023-08-12T05:46:16;73845.66;;;21.49;100.00
3844;BME280;1937;51.444;6.484;2023-08-12T05:48:43;73849.94;;;21.54;100.00
3844;BME280;1937;51.444;6.484;2023-08-12T05:51:09;73923.00;;;21.50;100.00
3844;BME280;1937;51.444;6.484;2023-08-12T05:53:36;73829.38;;;21.46;100.00
3844;BME280;1937;51.444;6.484;2023-08-12T05:56:04;73730.72;;;21.39;100.00
3844;BME280;1937;51.444;6.484;2023-08-12T05:58:31;73707.41;;;21.33;100.00
3844;BME280;1937;51.444;6.484;2023-08-12T06:00:57;73784.34;;;21.42;100.00
3844;BME280;1937;51.444;6.484;2023-08-12T06:03:24;73750.66;;;21.34;100.00
3844;BME280;1937;51.444;6.484;2023-08-12T06:05:51;73631.59;;;21.03;100.00
3844;BME280;1937;51.444;6.484;2023-08-12T06:08:17;73636.38;;;20.75;100.00
3844;BME280;1937;51.444;6.484;2023-08-12T06:10:44;73748.00;;;20.70;100.00
3844;BME280;1937;51.444;6.484;2023-08-12T06:13:12;73946.28;;;20.76;100.00
3844;BME280;1937;51.444;6.484;2023-08-12T06:15:38;74088.38;;;20.64;100.00
3844;BME280;1937;51.444;6.484;2023-08-12T06:18:05;74296.63;;;20.67;100.00
3844;BME280;1937;51.444;6.484;2023-08-12T06:20:32;74502.34;;;20.68;100.00
3844;BME280;1937;51.444;6.484;2023-08-12T06:22:58;74618.06;;;20.58;100.00
3844;BME280;1937;51.444;6.484;2023-08-12T06:25:25;74783.03;;;20.62;100.00
3844;BME280;1937;51.444;6.484;2023-08-12T06:27:51;74886.63;;;20.61;100.00
3844;BME280;1937;51.444;6.484;2023-08-12T06:30:20;74893.47;;;20.52;100.00
3844;BME280;1937;51.444;6.484;2023-08-12T06:32:46;75256.63;;;20.71;100.00
3844;BME280;1937;51.444;6.484;2023-08-12T06:35:13;75324.91;;;20.67;100.00
3844;BME280;1937;51.444;6.484;2023-08-12T06:37:39;75340.50;;;20.73;100.00
3844;BME280;1937;51.444;6.484;2023-08-12T06:40:07;75329.53;;;20.67;100.00
3844;BME280;1937;51.444;6.484;2023-08-12T06:42:34;75355.09;;;20.66;100.00
3844;BME280;1937;51.444;6.484;2023-08-12T06:45:01;75597.31;;;20.79;100.00
3844;BME280;1937;51.444;6.484;2023-08-12T06:47:30;75694.13;;;20.92;100.00
3844;BME280;1937;51.444;6.484;2023-08-12T06:49:57;75528.38;;;20.85;100.00
3844;BME280;1937;51.444;6.484;2023-08-12T06:52:23;75454.44;;;20.78;100.00
3844;BME280;1937;51.444;6.484;2023-08-12T06:54:50;75545.47;;;20.82;100.00
3844;BME280;1937;51.444;6.484;2023-08-12T06:57:17;75538.81;;;20.87;100.00
3844;BME280;1937;51.444;6.484;2023-08-12T06:59:44;75604.91;;;20.94;100.00
3844;BME280;1937;51.444;6.484;2023-08-12T07:02:11;75600.16;;;21.00;100.00
3844;BME280;1937;51.444;6.484;2023-08-12T07:04:39;75359.16;;;20.86;100.00
3844;BME280;1937;51.444;6.484;2023-08-12T07:07:06;75294.41;;;20.80;100.00
3844;BME280;1937;51.444;6.484;2023-08-12T07:09:32;75299.88;;;20.72;100.00
3844;BME280;1937;51.444;6.484;2023-08-12T07:11:59;75567.63;;;20.89;100.00
3844;BME280;1937;51.444;6.484;2023-08-12T07:14:26;75629.56;;;21.05;100.00
3844;BME280;1937;51.444;6.484;2023-08-12T07:16:53;75553.38;;;21.09;100.00
3844;BME280;1937;51.444;6.484;2023-08-12T07:19:19;75549.28;;;21.18;100.00
3844;BME280;1937;51.444;6.484;2023-08-12T07:21:47;75494.16;;;21.18;100.00
3844;BME280;1937;51.444;6.484;2023-08-12T07:24:14;75339.59;;;21.08;100.00
3844;BME280;1937;51.444;6.484;2023-08-12T07:26:40;75400.97;;;21.19;100.00
3844;BME280;1937;51.444;6.484;2023-08-12T07:29:07;75446.81;;;21.22;100.00
3844;BME280;1937;51.444;6.484;2023-08-12T07:31:34;75430.38;;;21.23;100.00
3844;BME280;1937;51.444;6.484;2023-08-12T07:34:00;75395.75;;;21.19;100.00
3844;BME280;1937;51.444;6.484;2023-08-12T07:36:27;75380.56;;;21.21;100.00
3844;BME280;1937;51.444;6.484;2023-08-12T07:38:55;75453.69;;;21.36;100.00
3844;BME280;1937;51.444;6.484;2023-08-12T07:41:21;75335.75;;;21.30;100.00
3844;BME280;1937;51.444;6.484;2023-08-12T07:43:48;75404.34;;;21.40;100.00
3844;BME280;1937;51.444;6.484;2023-08-12T07:46:14;75361.06;;;21.39;100.00
3844;BME280;1937;51.444;6.484;2023-08-12T07:48:41;75407.66;;;21.39;100.00
3844;BME280;1937;51.444;6.484;2023-08-12T07:51:07;75342.69;;;21.39;100.00
3844;BME280;1937;51.444;6.484;2023-08-12T07:53:34;75399.59;;;21.47;100.00
3844;BME280;1937;51.444;6.484;2023-08-12T07:56:02;75207.66;;;21.34;100.00
3844;BME280;1937;51.444;6.484;2023-08-12T07:58:29;75062.34;;;21.23;100.00
3844;BME280;1937;51.444;6.484;2023-08-12T08:00:56;75169.06;;;21.31;100.00
3844;BME280;1937;51.444;6.484;2023-08-12T08:03:22;75095.63;;;21.29;100.00
3844;BME280;1937;51.444;6.484;2023-08-12T08:05:49;75204.81;;;21.42;100.00
3844;BME280;1937;51.444;6.484;2023-08-12T08:08:15;75012.94;;;21.30;100.00
3844;BME280;1937;51.444;6.484;2023-08-12T08:10:42;75109.06;;;21.39;100.00
3844;BME280;1937;51.444;6.484;2023-08-12T08:13:10;75067.22;;;21.35;100.00
3844;BME280;1937;51.444;6.484;2023-08-12T08:15:37;75236.13;;;21.48;100.00
3844;BME280;1937;51.444;6.484;2023-08-12T08:18:04;75257.78;;;21.49;100.00
3844;BME280;1937;51.444;6.484;2023-08-12T08:20:31;75325.03;;;21.60;100.00
3844;BME280;1937;51.444;6.484;2023-08-12T08:22:57;75205.59;;;21.59;100.00
3844;BME280;1937;51.444;6.484;2023-08-12T08:25:24;75218.03;;;21.61;100.00
3844;BME280;1937;51.444;6.484;2023-08-12T08:27:50;75363.44;;;21.72;100.00
3844;BME280;1937;51.444;6.484;2023-08-12T08:30:18;75213.25;;;21.68;100.00
3844;BME280;1937;51.444;6.484;2023-08-12T08:32:45;74902.09;;;21.48;100.00
3844;BME280;1937;51.444;6.484;2023-08-12T08:35:12;75084.16;;;21.59;100.00
3844;BME280;1937;51.444;6.484;2023-08-12T08:37:40;75121.56;;;21.59;100.00
3844;BME280;1937;51.444;6.484;2023-08-12T08:40:08;75224.94;;;21.71;100.00
3844;BME280;1937;51.444;6.484;2023-08-12T08:42:35;75212.84;;;21.80;100.00
3844;BME280;1937;51.444;6.484;2023-08-12T08:45:08;75056.47;;;21.83;100.00
3844;BME280;1937;51.444;6.484;2023-08-12T08:47:41;75002.16;;;21.77;100.00
3844;BME280;1937;51.444;6.484;2023-08-12T08:50:09;74924.16;;;21.74;100.00
3844;BME280;1937;51.444;6.484;2023-08-12T08:52:36;74740.47;;;21.53;100.00
3844;BME280;1937;51.444;6.484;2023-08-12T08:55:04;74716.91;;;21.51;100.00
3844;BME280;1937;51.444;6.484;2023-08-12T08:57:31;74752.75;;;21.40;100.00
3844;BME280;1937;51.444;6.484;2023-08-12T08:59:58;74895.56;;;21.47;100.00
3844;BME280;1937;51.444;6.484;2023-08-12T09:02:24;74994.25;;;21.58;100.00
3844;BME280;1937;51.444;6.484;2023-08-12T09:04:53;75087.75;;;21.70;100.00
3844;BME280;1937;51.444;6.484;2023-08-12T09:07:20;75052.78;;;21.76;100.00
3844;BME280;1937;51.444;6.484;2023-08-12T09:09:48;74909.81;;;21.71;100.00
3844;BME280;1937;51.444;6.484;2023-08-12T09:12:16;74942.47;;;21.76;100.00
3844;BME280;1937;51.444;6.484;2023-08-12T09:14:43;74789.38;;;21.79;100.00
3844;BME280;1937;51.444;6.484;2023-08-12T09:17:10;74629.41;;;21.73;100.00
3844;BME280;1937;51.444;6.484;2023-08-12T09:19:37;74521.53;;;21.62;100.00
3844;BME280;1937;51.444;6.484;2023-08-12T09:22:06;74635.78;;;21.61;100.00
3844;BME280;1937;51.444;6.484;2023-08-12T09:24:34;74607.63;;;21.60;100.00
3844;BME280;1937;51.444;6.484;2023-08-12T09:27:01;74626.41;;;21.67;100.00
3844;BME280;1937;51.444;6.484;2023-08-12T09:29:29;74616.03;;;21.62;100.00
3844;BME280;1937;51.444;6.484;2023-08-12T09:32:05;74750.13;;;21.75;100.00
3844;BME280;1937;51.444;6.484;2023-08-12T09:34:32;74900.41;;;21.96;100.00
3844;BME280;1937;51.444;6.484;2023-08-12T09:36:59;74738.59;;;21.85;100.00
3844;BME280;1937;51.444;6.484;2023-08-12T09:39:28;74660.19;;;21.91;100.00
3844;BME280;1937;51.444;6.484;2023-08-12T09:41:55;74636.72;;;21.87;100.00
3844;BME280;1937;51.444;6.484;2023-08-12T09:44:22;74565.91;;;21.85;100.00
3844;BME280;1937;51.444;6.484;2023-08-12T09:46:48;74727.50;;;22.01;100.00
3844;BME280;1937;51.444;6.484;2023-08-12T09:49:22;74647.63;;;21.94;100.00
3844;BME280;1937;51.444;6.484;2023-08-12T09:51:48;74608.53;;;21.86;100.00
3844;BME280;1937;51.444;6.484;2023-08-12T09:54:17;74587.00;;;21.83;100.00
3844;BME280;1937;51.444;6.484;2023-08-12T09:56:47;74644.69;;;22.02;100.00
3844;BME280;1937;51.444;6.484;2023-08-12T09:59:17;74623.44;;;22.08;100.00
3844;BME280;1937;51.444;6.484;2023-08-12T10:01:45;74729.72;;;22.11;100.00
3844;BME280;1937;51.444;6.484;2023-08-12T10:04:14;74846.22;;;22.39;100.00
3844;BME280;1937;51.444;6.484;2023-08-12T10:06:44;74817.63;;;22.48;100.00
3844;BME280;1937;51.444;6.484;2023-08-12T10:09:11;74871.84;;;22.74;100.00
3844;BME280;1937;51.444;6.484;2023-08-12T10:11:38;74735.13;;;22.89;100.00
3844;BME280;1937;51.444;6.484;2023-08-12T10:14:08;75041.53;;;23.44;100.00
3844;BME280;1937;51.444;6.484;2023-08-12T10:16:36;74940.19;;;23.59;100.00
3844;BME280;1937;51.444;6.484;2023-08-12T10:19:05;74655.66;;;23.61;100.00
3844;BME280;1937;51.444;6.484;2023-08-12T10:21:32;74788.56;;;23.79;100.00
3844;BME280;1937;51.444;6.484;2023-08-12T10:23:58;74560.22;;;23.88;100.00
3844;BME280;1937;51.444;6.484;2023-08-12T10:26:26;74193.25;;;23.90;100.00
3844;BME280;1937;51.444;6.484;2023-08-12T10:28:53;73838.66;;;23.61;100.00
3844;BME280;1937;51.444;6.484;2023-08-12T10:31:21;74020.91;;;23.74;100.00
3844;BME280;1937;51.444;6.484;2023-08-12T10:33:48;73916.16;;;23.98;99.61
3844;BME280;1937;51.444;6.484;2023-08-12T10:36:15;73523.56;;;23.57;100.00
3844;BME280;1937;51.444;6.484;2023-08-12T10:38:44;73427.91;;;23.61;99.15
3844;BME280;1937;51.444;6.484;2023-08-12T10:41:15;73473.75;;;23.75;99.44
3844;BME280;1937;51.444;6.484;2023-08-12T10:43:49;73257.09;;;23.46;99.04
3844;BME280;1937;51.444;6.484;2023-08-12T10:46:29;73153.25;;;23.15;99.32
3844;BME280;1937;51.444;6.484;2023-08-12T10:48:57;72887.53;;;22.79;100.00
3844;BME280;1937;51.444;6.484;2023-08-12T10:51:46;72714.31;;;22.30;100.00
3844;BME280;1937;51.444;6.484;2023-08-12T10:54:23;72611.25;;;21.84;100.00
3844;BME280;1937;51.444;6.484;2023-08-12T10:57:05;72713.69;;;21.74;100.00
3844;BME280;1937;51.444;6.484;2023-08-12T10:59:53;72828.00;;;21.62;100.00
3844;BME280;1937;51.444;6.484;2023-08-12T11:02:26;73052.06;;;21.56;100.00
3844;BME280;1937;51.444;6.484;2023-08-12T11:04:53;73299.22;;;21.70;100.00
3844;BME280;1937;51.444;6.484;2023-08-12T11:07:21;73396.09;;;21.74;100.00
3844;BME280;1937;51.444;6.484;2023-08-12T11:09:52;73505.16;;;21.83;100.00
3844;BME280;1937;51.444;6.484;2023-08-12T11:12:28;73531.69;;;21.90;100.00
3844;BME280;1937;51.444;6.484;2023-08-12T11:14:57;73693.25;;;22.12;100.00
3844;BME280;1937;51.444;6.484;2023-08-12T11:17:29;73869.22;;;22.37;100.00
3844;BME280;1937;51.444;6.484;2023-08-12T11:19:57;74076.44;;;22.71;100.00
3844;BME280;1937;51.444;6.484;2023-08-12T11:22:24;74072.03;;;22.80;100.00
3844;BME280;1937;51.444;6.484;2023-08-12T11:24:51;74004.41;;;22.78;100.00
3844;BME280;1937;51.444;6.484;2023-08-12T11:27:18;74030.06;;;22.91;100.00
3844;BME280;1937;51.444;6.484;2023-08-12T11:29:45;74051.50;;;23.08;100.00
3844;BME280;1937;51.444;6.484;2023-08-12T11:32:12;74089.38;;;23.25;100.00
3844;BME280;1937;51.444;6.484;2023-08-12T11:34:40;73892.53;;;23.39;100.00
3844;BME280;1937;51.444;6.484;2023-08-12T11:37:06;73691.97;;;23.25;100.00
3844;BME280;1937;51.444;6.484;2023-08-12T11:39:34;73513.03;;;22.83;100.00
3844;BME280;1937;51.444;6.484;2023-08-12T11:42:00;73549.72;;;22.74;100.00
3844;BME280;1937;51.444;6.484;2023-08-12T11:44:27;73786.41;;;22.85;100.00
3844;BME280;1937;51.444;6.484;2023-08-12T11:46:54;73753.63;;;22.95;100.00
3844;BME280;1937;51.444;6.484;2023-08-12T11:49:20;73857.09;;;23.14;100.00
3844;BME280;1937;51.444;6.484;2023-08-12T11:51:48;73918.41;;;23.23;100.00
3844;BME280;1937;51.444;6.484;2023-08-12T11:54:16;74254.72;;;23.61;100.00
3844;BME280;1937;51.444;6.484;2023-08-12T11:56:43;74302.13;;;23.86;100.00
3844;BME280;1937;51.444;6.484;2023-08-12T11:59:09;74129.50;;;23.87;100.00
3844;BME280;1937;51.444;6.484;2023-08-12T12:01:36;74155.50;;;24.06;100.00
3844;BME280;1937;51.444;6.484;2023-08-12T12:04:03;74222.31;;;24.26;100.00
3844;BME280;1937;51.444;6.484;2023-08-12T12:06:31;73990.84;;;24.28;100.00
3844;BME280;1937;51.444;6.484;2023-08-12T12:09:04;73802.69;;;24.23;100.00
3844;BME280;1937;51.444;6.484;2023-08-12T12:11:31;73705.78;;;24.02;100.00
3844;BME280;1937;51.444;6.484;2023-08-12T12:14:01;73781.72;;;24.21;100.00
3844;BME280;1937;51.444;6.484;2023-08-12T12:16:37;73462.38;;;23.57;100.00
3844;BME280;1937;51.444;6.484;2023-08-12T12:19:04;73668.50;;;23.66;100.00
3844;BME280;1937;51.444;6.484;2023-08-12T12:21:38;73244.78;;;23.23;100.00
3844;BME280;1937;51.444;6.484;2023-08-12T12:24:07;73284.19;;;23.04;100.00
3844;BME280;1937;51.444;6.484;2023-08-12T12:26:34;73329.09;;;23.21;100.00
3844;BME280;1937;51.444;6.484;2023-08-12T12:29:01;73232.31;;;23.13;100.00
3844;BME280;1937;51.444;6.484;2023-08-12T12:31:28;73283.94;;;23.08;100.00
3844;BME280;1937;51.444;6.484;2023-08-12T12:33:55;73571.19;;;23.43;100.00
3844;BME280;1937;51.444;6.484;2023-08-12T12:36:22;73712.66;;;23.76;100.00
3844;BME280;1937;51.444;6.484;2023-08-12T12:38:49;73856.94;;;24.41;99.32
3844;BME280;1937;51.444;6.484;2023-08-12T12:41:17;73664.44;;;24.63;96.85
3844;BME280;1937;51.444;6.484;2023-08-12T12:43:44;73109.81;;;24.38;93.07
3844;BME280;1937;51.444;6.484;2023-08-12T12:46:10;72730.41;;;24.11;92.84
3844;BME280;1937;51.444;6.484;2023-08-12T12:48:37;72675.41;;;24.06;92.87
3844;BME280;1937;51.444;6.484;2023-08-12T12:51:04;72627.56;;;23.95;94.07
3844;BME280;1937;51.444;6.484;2023-08-12T12:53:30;72629.75;;;23.84;94.80
3844;BME280;1937;51.444;6.484;2023-08-12T12:55:57;72623.44;;;23.73;95.50
3844;BME280;1937;51.444;6.484;2023-08-12T12:58:30;72395.13;;;23.39;95.77
3844;BME280;1937;51.444;6.484;2023-08-12T13:00:58;72322.84;;;23.14;95.91
3844;BME280;1937;51.444;6.484;2023-08-12T13:03:25;72251.63;;;22.92;96.81
3844;BME280;1937;51.444;6.484;2023-08-12T13:05:51;72231.47;;;22.73;99.03
3844;BME280;1937;51.444;6.484;2023-08-12T13:08:18;72297.19;;;22.65;100.00
3844;BME280;1937;51.444;6.484;2023-08-12T13:10:45;72383.94;;;22.48;100.00
3844;BME280;1937;51.444;6.484;2023-08-12T13:13:12;72405.31;;;22.26;100.00
3844;BME280;1937;51.444;6.484;2023-08-12T13:15:40;72696.75;;;22.45;100.00